createdAt,value
2018-07-24T00:01:06.121Z,23.67
2018-07-24T00:03:34.373Z,22.97
2018-07-24T00:06:03.071Z,21.70
2018-07-24T00:08:31.784Z,22.70
2018-07-24T00:10:59.986Z,24.17
2018-07-24T00:13:28.313Z,22.20
2018-07-24T00:15:56.630Z,24.27
2018-07-24T00:18:24.772Z,23.20
2018-07-24T00:20:53.130Z,21.80
2018-07-24T00:23:21.693Z,24.07
2018-07-24T00:25:49.857Z,25.37
2018-07-24T00:28:18.385Z,26.00
2018-07-24T00:30:46.988Z,25.33
2018-07-24T00:33:15.702Z,29.00
2018-07-24T00:35:44.293Z,26.80
2018-07-24T00:38:18.759Z,25.27
2018-07-24T00:40:47.326Z,25.30
2018-07-24T00:43:15.598Z,20.93
2018-07-24T00:45:44.322Z,21.10
2018-07-24T00:48:13.032Z,23.37
2018-07-24T00:50:41.236Z,20.80
2018-07-24T00:53:09.861Z,20.87
2018-07-24T00:55:38.861Z,18.00
2018-07-24T00:58:07.533Z,21.83
2018-07-24T01:00:35.899Z,21.80
2018-07-24T01:03:04.102Z,19.47
2018-07-24T01:05:32.568Z,21.40
2018-07-24T01:08:02.355Z,23.93
2018-07-24T01:10:30.966Z,22.20
2018-07-24T01:12:59.205Z,20.80
2018-07-24T01:15:27.752Z,17.80
2018-07-24T01:17:57.017Z,19.50
2018-07-24T01:20:25.584Z,22.87
2018-07-24T01:22:53.896Z,21.80
2018-07-24T01:25:22.925Z,25.47
2018-07-24T01:27:51.758Z,23.17
2018-07-24T01:30:20.508Z,26.57
2018-07-24T01:32:49.211Z,22.50
2018-07-24T01:35:17.835Z,21.97
2018-07-24T01:37:47.274Z,25.30
2018-07-24T01:40:15.948Z,26.03
2018-07-24T01:42:45.064Z,24.17
2018-07-24T01:45:20.533Z,23.20
2018-07-24T01:47:48.923Z,23.50
2018-07-24T01:50:18.376Z,22.83
2018-07-24T01:52:46.653Z,21.43
2018-07-24T01:55:15.311Z,21.53
2018-07-24T01:57:44.873Z,25.70
2018-07-24T02:00:15.800Z,25.20
2018-07-24T02:02:44.308Z,28.13
2018-07-24T02:05:12.962Z,22.50
2018-07-24T02:07:41.898Z,24.30
2018-07-24T02:10:10.368Z,26.50
2018-07-24T02:12:38.784Z,23.70
2018-07-24T02:15:07.452Z,25.07
2018-07-24T02:17:36.384Z,26.80
2018-07-24T02:20:05.368Z,26.20
2018-07-24T02:22:34.916Z,22.47
2018-07-24T02:25:05.845Z,25.40
2018-07-24T02:27:34.554Z,25.40
2018-07-24T02:30:02.971Z,24.40
2018-07-24T02:32:31.855Z,26.43
2018-07-24T02:35:00.408Z,24.70
2018-07-24T02:37:29.037Z,23.13
2018-07-24T02:39:57.799Z,23.77
2018-07-24T02:42:26.027Z,26.93
2018-07-24T02:44:54.762Z,25.00
2018-07-24T02:47:23.387Z,23.90
2018-07-24T02:49:51.946Z,25.53
2018-07-24T02:52:20.432Z,26.00
2018-07-24T02:54:48.794Z,25.37
2018-07-24T02:57:17.415Z,23.73
2018-07-24T02:59:45.892Z,24.50
2018-07-24T03:02:14.548Z,24.83
2018-07-24T03:04:43.379Z,23.37
2018-07-24T03:07:11.769Z,24.20
2018-07-24T03:09:40.125Z,23.63
2018-07-24T03:12:08.799Z,23.23
2018-07-24T03:14:37.039Z,23.57
2018-07-24T03:17:05.620Z,21.80
2018-07-24T03:19:34.792Z,22.37
2018-07-24T03:22:03.704Z,22.87
2018-07-24T03:24:32.993Z,20.90
2018-07-24T03:27:01.493Z,20.23
2018-07-24T03:29:30.052Z,21.70
2018-07-24T03:31:58.786Z,23.50
2018-07-24T03:34:27.519Z,20.43
2018-07-24T03:36:56.215Z,23.63
2018-07-24T03:39:26.020Z,27.70
2018-07-24T03:41:54.399Z,27.47
2018-07-24T03:44:25.822Z,24.70
2018-07-24T03:46:56.344Z,25.33
2018-07-24T03:49:24.934Z,23.73
2018-07-24T03:51:53.987Z,25.80
2018-07-24T03:54:25.584Z,24.70
2018-07-24T03:56:55.547Z,25.90
2018-07-24T03:59:25.724Z,26.70
2018-07-24T04:01:54.053Z,25.67
2018-07-24T04:04:22.649Z,26.43
2018-07-24T04:06:51.246Z,26.60
2018-07-24T04:09:20.724Z,27.57
2018-07-24T04:11:48.978Z,27.37
2018-07-24T04:14:17.435Z,30.23
2018-07-24T04:16:45.658Z,29.63
2018-07-24T04:19:14.518Z,26.47
2018-07-24T04:21:43.056Z,30.03
2018-07-24T04:24:11.626Z,29.37
2018-07-24T04:26:39.765Z,27.87
2018-07-24T04:29:08.090Z,30.47
2018-07-24T04:31:36.783Z,30.60
2018-07-24T04:34:05.407Z,30.70
2018-07-24T04:36:33.885Z,28.67
2018-07-24T04:39:02.384Z,30.17
2018-07-24T04:41:30.871Z,32.83
2018-07-24T04:43:59.311Z,33.80
2018-07-24T04:46:27.833Z,33.10
2018-07-24T04:48:56.302Z,34.40
2018-07-24T04:51:24.998Z,36.13
2018-07-24T04:53:53.555Z,33.60
2018-07-24T04:56:22.093Z,36.30
2018-07-24T04:58:52.328Z,33.70
2018-07-24T05:01:22.828Z,34.67
2018-07-24T05:03:51.385Z,35.67
2018-07-24T05:06:19.918Z,36.00
2018-07-24T05:08:48.435Z,33.47
2018-07-24T05:11:17.914Z,39.53
2018-07-24T05:13:50.564Z,38.40
2018-07-24T05:16:21.290Z,43.00
2018-07-24T05:18:50.018Z,41.03
2018-07-24T05:21:18.724Z,39.77
2018-07-24T05:23:47.382Z,40.40
2018-07-24T05:26:16.063Z,38.33
2018-07-24T05:28:46.058Z,38.87
2018-07-24T05:31:17.144Z,42.33
2018-07-24T05:33:46.095Z,47.03
2018-07-24T05:36:14.843Z,49.10
2018-07-24T05:38:44.641Z,46.10
2018-07-24T05:41:13.544Z,46.57
2018-07-24T05:43:42.514Z,47.63
2018-07-24T05:46:13.937Z,48.37
2018-07-24T05:48:44.589Z,43.90
2018-07-24T05:51:14.116Z,41.00
2018-07-24T05:53:43.076Z,41.57
2018-07-24T05:56:12.419Z,42.50
2018-07-24T05:58:41.109Z,39.87
2018-07-24T06:01:09.933Z,39.20
2018-07-24T06:03:39.333Z,37.53
2018-07-24T06:06:07.927Z,37.33
2018-07-24T06:08:36.526Z,38.23
2018-07-24T06:11:05.142Z,36.17
2018-07-24T06:13:34.982Z,38.77
2018-07-24T06:16:04.059Z,31.87
2018-07-24T06:18:33.389Z,36.33
2018-07-24T06:21:01.947Z,31.60
2018-07-24T06:23:31.675Z,31.17
2018-07-24T06:26:00.255Z,31.27
2018-07-24T06:28:32.224Z,31.93
2018-07-24T06:31:01.537Z,29.80
2018-07-24T06:33:30.048Z,27.23
2018-07-24T06:35:58.588Z,29.50
2018-07-24T06:38:27.376Z,27.43
2018-07-24T06:40:55.963Z,25.80
2018-07-24T06:43:24.675Z,25.70
2018-07-24T06:45:53.641Z,25.77
2018-07-24T06:48:23.276Z,25.13
2018-07-24T06:50:53.045Z,23.37
2018-07-24T06:53:22.469Z,24.17
2018-07-24T06:55:51.960Z,25.80
2018-07-24T06:58:20.880Z,25.10
2018-07-24T07:00:50.308Z,23.57
2018-07-24T07:03:21.985Z,23.50
2018-07-24T07:05:50.960Z,22.37
2018-07-24T07:08:22.021Z,21.83
2018-07-24T07:10:50.638Z,18.83
2018-07-24T07:13:19.470Z,19.50
2018-07-24T07:15:48.332Z,18.73
2018-07-24T07:18:17.331Z,18.47
2018-07-24T07:20:45.877Z,18.00
2018-07-24T07:23:14.699Z,19.93
2018-07-24T07:25:43.268Z,16.90
2018-07-24T07:28:11.918Z,18.20
2018-07-24T07:30:40.764Z,17.30
2018-07-24T07:33:09.468Z,17.07
2018-07-24T07:35:38.125Z,19.10
2018-07-24T07:38:06.988Z,17.67
2018-07-24T07:40:35.472Z,16.40
2018-07-24T07:43:03.994Z,16.73
2018-07-24T07:45:32.748Z,17.07
2018-07-24T07:48:01.406Z,17.77
2018-07-24T07:50:30.090Z,17.37
2018-07-24T07:52:58.802Z,16.00
2018-07-24T07:55:27.601Z,16.77
2018-07-24T07:57:56.678Z,16.90
2018-07-24T08:00:25.330Z,15.70
2018-07-24T08:02:54.418Z,16.33
2018-07-24T08:05:26.434Z,14.80
2018-07-24T08:07:55.223Z,16.00
2018-07-24T08:10:24.039Z,15.97
2018-07-24T08:12:52.707Z,14.80
2018-07-24T08:15:21.431Z,16.13
2018-07-24T08:17:50.279Z,18.37
2018-07-24T08:20:19.567Z,17.50
2018-07-24T08:22:48.531Z,17.30
2018-07-24T08:25:17.205Z,16.33
2018-07-24T08:27:46.091Z,16.73
2018-07-24T08:30:15.097Z,17.33
2018-07-24T08:32:43.746Z,17.10
2018-07-24T08:35:12.980Z,15.83
2018-07-24T08:37:42.357Z,17.97
2018-07-24T08:40:11.517Z,17.23
2018-07-24T08:42:40.147Z,16.20
2018-07-24T08:45:09.097Z,15.93
2018-07-24T08:47:41.058Z,17.13
2018-07-24T08:50:11.062Z,15.27
2018-07-24T08:52:41.347Z,15.20
2018-07-24T08:55:10.353Z,15.90
2018-07-24T08:57:39.255Z,15.50
2018-07-24T09:00:07.669Z,14.53
2018-07-24T09:02:38.799Z,14.93
2018-07-24T09:05:07.360Z,15.10
2018-07-24T09:07:36.854Z,16.10
2018-07-24T09:10:05.848Z,13.57
2018-07-24T09:12:34.678Z,13.90
2018-07-24T09:15:04.038Z,14.43
2018-07-24T09:17:32.709Z,15.60
2018-07-24T09:20:01.353Z,14.30
2018-07-24T09:22:32.048Z,14.60
2018-07-24T09:25:01.204Z,13.63
2018-07-24T09:27:29.748Z,14.30
2018-07-24T09:29:58.352Z,14.07
2018-07-24T09:32:26.928Z,14.47
2018-07-24T09:34:55.417Z,12.70
2018-07-24T09:37:23.953Z,12.57
2018-07-24T09:39:52.534Z,13.10
2018-07-24T09:42:21.054Z,14.17
2018-07-24T09:44:49.616Z,13.70
2018-07-24T09:47:18.760Z,12.53
2018-07-24T09:49:47.271Z,13.73
2018-07-24T09:52:15.705Z,12.70
2018-07-24T09:54:44.217Z,12.03
2018-07-24T09:57:12.886Z,11.50
2018-07-24T09:59:41.454Z,12.90
2018-07-24T10:02:09.993Z,13.00
2018-07-24T10:04:38.476Z,12.07
2018-07-24T10:07:06.925Z,11.60
2018-07-24T10:09:35.373Z,12.10
2018-07-24T10:12:03.932Z,11.17
2018-07-24T10:14:32.501Z,12.73
2018-07-24T10:17:00.989Z,12.73
2018-07-24T10:19:29.466Z,12.33
2018-07-24T10:21:57.967Z,12.57
2018-07-24T10:24:26.510Z,12.43
2018-07-24T10:26:55.051Z,11.67
2018-07-24T10:29:23.559Z,10.77
2018-07-24T10:31:52.076Z,10.43
2018-07-24T10:34:20.621Z,9.20
2018-07-24T10:36:49.670Z,8.63
2018-07-24T10:39:18.237Z,9.20
2018-07-24T10:41:46.780Z,8.73
2018-07-24T10:44:15.357Z,10.90
2018-07-24T10:46:43.874Z,9.87
2018-07-24T10:49:12.892Z,9.03
2018-07-24T10:51:41.345Z,9.30
2018-07-24T10:54:10.452Z,8.53
2018-07-24T10:56:38.897Z,9.97
2018-07-24T10:59:07.431Z,9.93
2018-07-24T11:01:35.950Z,10.50
2018-07-24T11:04:04.526Z,8.90
2018-07-24T11:06:33.067Z,8.93
2018-07-24T11:09:01.588Z,9.40
2018-07-24T11:11:33.986Z,9.80
2018-07-24T11:14:02.456Z,10.00
2018-07-24T11:16:30.990Z,8.93
2018-07-24T11:18:59.584Z,8.50
2018-07-24T11:21:28.217Z,9.37
2018-07-24T11:23:56.862Z,8.23
2018-07-24T11:26:25.658Z,8.93
2018-07-24T11:28:54.471Z,8.50
2018-07-24T11:31:23.440Z,8.90
2018-07-24T11:33:51.936Z,8.53
2018-07-24T11:36:21.214Z,8.17
2018-07-24T11:38:49.858Z,8.50
2018-07-24T11:41:18.469Z,8.30
2018-07-24T11:43:47.104Z,7.93
2018-07-24T11:46:15.740Z,8.20
2018-07-24T11:48:44.334Z,9.83
2018-07-24T11:51:16.772Z,9.23
2018-07-24T11:53:45.946Z,9.93
2018-07-24T11:56:14.542Z,9.90
2018-07-24T11:58:43.154Z,8.80
2018-07-24T12:01:11.781Z,8.07
2018-07-24T12:03:40.337Z,8.30
2018-07-24T12:06:08.959Z,8.53
2018-07-24T12:08:37.629Z,6.90
2018-07-24T12:11:06.357Z,7.57
2018-07-24T12:13:34.954Z,7.10
2018-07-24T12:16:03.604Z,7.37
2018-07-24T12:18:32.153Z,17.23
2018-07-24T12:21:00.771Z,9.20
2018-07-24T12:23:29.366Z,8.13
2018-07-24T12:25:58.027Z,7.40
2018-07-24T12:28:26.747Z,7.27
2018-07-24T12:30:55.484Z,6.10
2018-07-24T12:33:24.170Z,7.23
2018-07-24T12:35:52.700Z,6.90
2018-07-24T12:38:21.818Z,6.43
2018-07-24T12:40:51.222Z,9.43
2018-07-24T12:43:20.121Z,6.80
2018-07-24T12:45:48.720Z,6.50
2018-07-24T12:48:17.223Z,7.50
2018-07-24T12:50:45.872Z,7.70
2018-07-24T12:53:14.575Z,6.83
2018-07-24T12:55:43.100Z,7.97
2018-07-24T12:58:11.788Z,6.10
2018-07-24T13:00:40.366Z,6.43
2018-07-24T13:03:08.970Z,6.10
2018-07-24T13:05:37.497Z,6.80
2018-07-24T13:08:06.025Z,7.27
2018-07-24T13:10:34.601Z,7.60
2018-07-24T13:13:03.202Z,6.60
2018-07-24T13:15:31.660Z,9.10
2018-07-24T13:18:00.166Z,7.83
2018-07-24T13:20:28.705Z,6.70
2018-07-24T13:22:57.248Z,6.97
2018-07-24T13:25:25.819Z,6.23
2018-07-24T13:27:54.380Z,6.20
2018-07-24T13:30:22.876Z,6.80
2018-07-24T13:32:53.912Z,6.80
2018-07-24T13:35:22.689Z,6.80
2018-07-24T13:37:52.884Z,6.10
2018-07-24T13:40:21.611Z,6.87
2018-07-24T13:42:50.201Z,6.60
2018-07-24T13:45:18.784Z,7.57
2018-07-24T13:47:47.313Z,7.13
2018-07-24T13:50:18.899Z,6.50
2018-07-24T13:52:47.618Z,6.87
2018-07-24T13:55:16.192Z,7.40
2018-07-24T13:57:44.744Z,7.20
2018-07-24T14:00:13.547Z,6.60
2018-07-24T14:02:42.240Z,6.20
2018-07-24T14:05:10.895Z,6.00
2018-07-24T14:07:39.372Z,7.53
2018-07-24T14:10:07.883Z,7.03
2018-07-24T14:12:36.426Z,6.50
2018-07-24T14:15:05.099Z,6.77
2018-07-24T14:17:33.807Z,7.23
2018-07-24T14:20:02.834Z,6.40
2018-07-24T14:22:31.352Z,7.30
2018-07-24T14:24:59.961Z,6.40
2018-07-24T14:27:28.495Z,6.70
2018-07-24T14:29:57.076Z,7.17
2018-07-24T14:32:25.606Z,6.87
2018-07-24T14:34:54.256Z,6.17
2018-07-24T14:37:22.954Z,6.30
2018-07-24T14:39:51.460Z,5.90
2018-07-24T14:42:20.121Z,6.60
2018-07-24T14:44:48.617Z,7.27
2018-07-24T14:47:17.170Z,6.40
2018-07-24T14:49:45.879Z,6.40
2018-07-24T14:52:14.463Z,6.27
2018-07-24T14:54:43.007Z,6.50
2018-07-24T14:57:11.803Z,7.30
2018-07-24T14:59:40.422Z,7.43
2018-07-24T15:02:08.982Z,6.90
2018-07-24T15:04:37.554Z,6.60
2018-07-24T15:07:06.246Z,7.10
2018-07-24T15:09:34.795Z,6.30
2018-07-24T15:12:03.405Z,6.00
2018-07-24T15:14:31.973Z,6.87
2018-07-24T15:17:00.528Z,6.47
2018-07-24T15:19:29.124Z,5.70
2018-07-24T15:21:57.690Z,6.43
2018-07-24T15:24:26.319Z,6.57
2018-07-24T15:26:54.995Z,6.20
2018-07-24T15:29:23.597Z,5.97
2018-07-24T15:31:52.173Z,6.50
2018-07-24T15:34:20.920Z,6.50
2018-07-24T15:36:49.686Z,7.03
2018-07-24T15:39:18.319Z,5.20
2018-07-24T15:41:47.146Z,6.13
2018-07-24T15:44:18.179Z,6.53
2018-07-24T15:46:46.915Z,6.50
2018-07-24T15:49:15.629Z,6.37
2018-07-24T15:51:44.513Z,6.50
2018-07-24T15:54:13.933Z,6.20
2018-07-24T15:56:45.062Z,5.70
2018-07-24T15:59:13.632Z,6.43
2018-07-24T16:01:42.311Z,6.30
2018-07-24T16:04:13.650Z,6.73
2018-07-24T16:06:42.257Z,7.13
2018-07-24T16:09:14.495Z,6.23
2018-07-24T16:11:45.083Z,6.40
2018-07-24T16:14:13.903Z,6.23
2018-07-24T16:16:42.694Z,5.70
2018-07-24T16:19:11.341Z,6.17
2018-07-24T16:21:40.335Z,6.00
2018-07-24T16:24:09.197Z,6.77
2018-07-24T16:26:38.049Z,5.97
2018-07-24T16:29:06.689Z,6.43
2018-07-24T16:31:35.710Z,6.83
2018-07-24T16:34:04.533Z,6.13
2018-07-24T16:36:34.598Z,5.70
2018-07-24T16:39:03.556Z,6.00
2018-07-24T16:41:32.909Z,6.73
2018-07-24T16:44:04.847Z,6.80
2018-07-24T16:46:34.122Z,6.37
2018-07-24T16:49:02.821Z,6.47
2018-07-24T16:51:32.120Z,7.20
2018-07-24T16:54:01.588Z,8.10
2018-07-24T16:56:30.395Z,8.17
2018-07-24T16:59:00.083Z,6.60
2018-07-24T17:01:30.548Z,6.80
2018-07-24T17:03:59.467Z,6.10
2018-07-24T17:06:29.728Z,6.00
2018-07-24T17:08:58.978Z,7.07
2018-07-24T17:11:29.993Z,6.70
2018-07-24T17:13:59.146Z,6.23
2018-07-24T17:16:27.889Z,6.73
2018-07-24T17:18:56.534Z,6.23
2018-07-24T17:21:25.073Z,6.43
2018-07-24T17:23:53.681Z,5.73
2018-07-24T17:26:22.351Z,5.90
2018-07-24T17:28:50.928Z,6.60
2018-07-24T17:31:19.429Z,6.00
2018-07-24T17:33:48.084Z,6.83
2018-07-24T17:36:17.156Z,6.07
2018-07-24T17:38:45.796Z,7.37
2018-07-24T17:41:14.366Z,6.73
2018-07-24T17:43:42.920Z,7.13
2018-07-24T17:46:11.403Z,6.27
2018-07-24T17:48:40.000Z,6.47
2018-07-24T17:51:08.614Z,6.70
2018-07-24T17:53:37.444Z,5.73
2018-07-24T17:56:06.053Z,7.50
2018-07-24T17:58:34.571Z,7.07
2018-07-24T18:01:03.284Z,7.53
2018-07-24T18:03:31.784Z,6.60
2018-07-24T18:06:00.395Z,6.50
2018-07-24T18:08:30.910Z,6.70
2018-07-24T18:10:59.744Z,7.70
2018-07-24T18:13:28.246Z,6.43
2018-07-24T18:15:56.842Z,7.30
2018-07-24T18:18:25.391Z,7.07
2018-07-24T18:20:53.961Z,7.70
2018-07-24T18:23:22.731Z,6.20
2018-07-24T18:25:50.933Z,6.93
2018-07-24T18:28:19.459Z,7.07
2018-07-24T18:30:47.967Z,6.93
2018-07-24T18:33:16.809Z,8.53
2018-07-24T18:35:45.302Z,7.10
2018-07-24T18:38:13.595Z,10.67
2018-07-24T18:40:42.155Z,8.80
2018-07-24T18:43:10.953Z,9.00
2018-07-24T18:45:39.211Z,9.83
2018-07-24T18:48:08.062Z,8.70
2018-07-24T18:50:36.317Z,9.00
2018-07-24T18:53:06.326Z,9.10
2018-07-24T18:55:35.600Z,7.50
2018-07-24T18:58:03.887Z,8.70
2018-07-24T19:00:32.515Z,8.20
2018-07-24T19:03:01.437Z,8.43
2018-07-24T19:05:30.172Z,8.10
2018-07-24T19:07:59.570Z,7.30
2018-07-24T19:10:29.097Z,9.10
2018-07-24T19:12:58.503Z,8.40
2018-07-24T19:15:27.832Z,9.10
2018-07-24T19:18:02.069Z,8.93
2018-07-24T19:20:32.500Z,8.90
2018-07-24T19:23:01.024Z,9.67
2018-07-24T19:25:30.958Z,11.07
2018-07-24T19:28:00.263Z,9.33
2018-07-24T19:30:28.761Z,9.50
2018-07-24T19:32:58.393Z,12.10
2018-07-24T19:35:30.851Z,12.37
2018-07-24T19:38:00.758Z,10.73
2018-07-24T19:40:30.633Z,10.40
2018-07-24T19:43:00.643Z,10.50
2018-07-24T19:45:29.535Z,10.10
2018-07-24T19:47:58.484Z,10.53
2018-07-24T19:50:27.384Z,10.37
2018-07-24T19:52:56.161Z,10.60
2018-07-24T19:55:25.299Z,11.00
2018-07-24T19:57:55.617Z,11.53
2018-07-24T20:00:24.549Z,10.07
2018-07-24T20:02:53.909Z,11.93
2018-07-24T20:05:25.825Z,12.43
2018-07-24T20:07:54.333Z,11.10
2018-07-24T20:10:23.499Z,10.43
2018-07-24T20:12:52.272Z,12.60
2018-07-24T20:15:21.585Z,11.77
2018-07-24T20:17:51.028Z,12.10
2018-07-24T20:20:21.566Z,11.53
2018-07-24T20:22:50.311Z,12.80
2018-07-24T20:25:19.026Z,11.53
2018-07-24T20:27:48.349Z,13.23
2018-07-24T20:30:18.088Z,12.77
2018-07-24T20:32:46.831Z,12.77
2018-07-24T20:35:15.586Z,12.17
2018-07-24T20:37:45.217Z,12.67
2018-07-24T20:40:14.133Z,14.87
2018-07-24T20:42:43.152Z,12.90
2018-07-24T20:45:12.013Z,14.23
2018-07-24T20:47:40.765Z,14.13
2018-07-24T20:50:09.075Z,13.37
2018-07-24T20:52:38.219Z,13.30
2018-07-24T20:55:07.241Z,14.43
2018-07-24T20:57:35.752Z,13.17
2018-07-24T21:00:04.055Z,13.00
2018-07-24T21:02:32.809Z,13.90
2018-07-24T21:05:01.136Z,13.40
2018-07-24T21:07:29.737Z,13.27
2018-07-24T21:09:58.322Z,14.30
2018-07-24T21:12:30.715Z,14.47
2018-07-24T21:14:59.333Z,14.90
2018-07-24T21:17:27.611Z,15.23
2018-07-24T21:19:56.116Z,13.10
2018-07-24T21:22:24.770Z,15.20
2018-07-24T21:24:53.791Z,13.53
2018-07-24T21:27:22.363Z,14.03
2018-07-24T21:29:50.961Z,13.63
2018-07-24T21:32:19.484Z,13.40
2018-07-24T21:34:47.701Z,14.90
2018-07-24T21:37:16.299Z,14.93
2018-07-24T21:39:45.168Z,15.30
2018-07-24T21:42:13.353Z,15.13
2018-07-24T21:44:41.624Z,14.80
2018-07-24T21:47:09.801Z,14.67
2018-07-24T21:49:38.333Z,16.13
2018-07-24T21:52:06.854Z,15.20
2018-07-24T21:54:35.382Z,14.80
2018-07-24T21:57:03.923Z,16.57
2018-07-24T21:59:32.179Z,16.27
2018-07-24T22:02:00.623Z,17.07
2018-07-24T22:04:29.170Z,15.60
2018-07-24T22:06:57.654Z,16.60
2018-07-24T22:09:26.170Z,16.70
2018-07-24T22:11:54.331Z,16.20
2018-07-24T22:14:22.822Z,16.83
2018-07-24T22:16:51.468Z,15.40
2018-07-24T22:19:19.918Z,16.07
2018-07-24T22:21:48.153Z,16.37
2018-07-24T22:24:16.570Z,15.63
2018-07-24T22:26:45.073Z,17.10
2018-07-24T22:29:13.309Z,16.63
2018-07-24T22:31:41.480Z,16.67
2018-07-24T22:34:09.905Z,15.83
2018-07-24T22:36:38.194Z,16.37
2018-07-24T22:39:09.267Z,15.63
2018-07-24T22:41:37.788Z,17.20
2018-07-24T22:44:05.954Z,17.50
2018-07-24T22:46:34.690Z,16.43
2018-07-24T22:49:02.953Z,15.50
2018-07-24T22:51:31.082Z,17.40
2018-07-24T22:53:59.589Z,15.40
2018-07-24T22:56:28.196Z,17.13
2018-07-24T22:58:56.692Z,16.60
2018-07-24T23:01:25.166Z,17.63
2018-07-24T23:03:53.646Z,15.40
2018-07-24T23:06:22.072Z,17.60
2018-07-24T23:08:50.563Z,15.63
2018-07-24T23:11:19.133Z,16.17
2018-07-24T23:13:47.578Z,15.30
2018-07-24T23:16:16.028Z,17.37
2018-07-24T23:18:44.138Z,15.70
2018-07-24T23:21:12.654Z,15.30
2018-07-24T23:23:40.762Z,17.07
2018-07-24T23:26:09.204Z,14.93
2018-07-24T23:28:37.621Z,16.57
2018-07-24T23:31:06.328Z,17.70
2018-07-24T23:33:34.746Z,17.47
2018-07-24T23:36:03.344Z,17.57
2018-07-24T23:38:31.807Z,17.30
2018-07-24T23:41:00.267Z,18.70
2018-07-24T23:43:28.735Z,17.83
2018-07-24T23:45:57.092Z,17.30
2018-07-24T23:48:25.587Z,18.30
2018-07-24T23:50:53.838Z,19.57
2018-07-24T23:53:22.444Z,19.47
2018-07-24T23:55:50.587Z,17.50
2018-07-24T23:58:19.301Z,18.93
